Terminal Aerodrome Forecast
Issued by NWS Blacksburg, VA

Current Version | Previous Version | Graphics & Text | Print | Product List | Glossary On
Versions: 1 2 3 4 5 6 7 8 9 10 11 12 13 14 15 16 17 18 19 20 21 22 23 24 25 26 27 28 29 30 31 32 33 34 35 36 37
000
FTUS41 KRNK 220520
TAFBLF
TAF
KBLF 220520Z 2206/2306 19006KT P6SM BKN080
     FM222000 17011G21KT P6SM SCT100
     FM230200 17014G28KT P6SM VCSH BKN025
     FM230500 19013G25KT 3SM SHRA OVC020=

USA.gov is the U.S. government's official web portal to all federal, state and local government web resources and services.